Time;durP1;ratioP1;P1;durP2;ratioP2;P2;SDS_P1;SDS_P2;PMS_P1;PMS_P2;Temp;Humidity;BMP_temperature;BMP_pressure;BME280_temperature;BME280_humidity;BME280_pressure;Samples;Min_cycle;Max_cycle;Signal;HPM_P1;HPM_P2
2021/12/26 00:00:35;;;;;;;1.70;1.48;;;17.60;55.50;;;;;;5032752;28;20120;-49
2021/12/26 00:03:02;;;;;;;1.70;1.60;;;17.60;55.50;;;;;;5034380;28;20046;-46
2021/12/26 00:05:29;;;;;;;2.55;2.33;;;17.60;55.50;;;;;;5039985;28;20094;-53
2021/12/26 00:07:57;;;;;;;2.63;2.40;;;17.60;55.50;;;;;;5037592;28;20128;-49
2021/12/26 00:10:25;;;;;;;1.95;1.83;;;17.60;55.50;;;;;;5036148;28;20063;-44
2021/12/26 00:12:53;;;;;;;2.97;1.88;;;17.60;55.50;;;;;;5034019;28;20045;-47
2021/12/26 00:15:20;;;;;;;1.95;1.85;;;17.60;55.50;;;;;;5037095;28;20052;-46
2021/12/26 00:17:49;;;;;;;2.35;1.20;;;17.60;55.50;;;;;;5035616;28;20132;-49
2021/12/26 00:20:16;;;;;;;3.53;2.35;;;17.60;55.50;;;;;;5036604;28;20045;-45
2021/12/26 00:22:44;;;;;;;3.92;2.30;;;17.60;55.50;;;;;;5036315;28;20049;-50
2021/12/26 00:25:12;;;;;;;2.38;2.15;;;17.60;55.50;;;;;;5035643;28;20037;-49
2021/12/26 00:27:40;;;;;;;3.22;1.85;;;17.60;55.50;;;;;;5032603;28;20056;-47
2021/12/26 00:30:10;;;;;;;1.83;1.55;;;17.50;55.40;;;;;;5035977;28;20117;-53
2021/12/26 00:32:37;;;;;;;3.03;1.85;;;17.60;55.50;;;;;;5039173;28;20066;-53
2021/12/26 00:35:08;;;;;;;1.77;1.65;;;17.60;55.50;;;;;;5036575;28;20040;-46
2021/12/26 00:37:35;;;;;;;1.58;1.48;;;17.60;55.50;;;;;;5035665;28;20501;-46
2021/12/26 00:40:03;;;;;;;2.72;2.53;;;17.60;55.50;;;;;;5034330;28;20399;-49
2021/12/26 00:42:30;;;;;;;2.05;1.75;;;17.60;55.50;;;;;;5037702;28;20088;-52
2021/12/26 00:44:57;;;;;;;1.33;1.20;;;17.50;55.40;;;;;;5035907;28;20056;-50
2021/12/26 00:47:24;;;;;;;2.22;1.75;;;17.60;55.50;;;;;;5037266;28;20037;-48
2021/12/26 00:49:51;;;;;;;1.98;1.63;;;17.60;55.50;;;;;;5017256;28;20672;-48
2021/12/26 00:52:20;;;;;;;3.72;1.88;;;17.60;55.50;;;;;;5031068;28;20045;-52
2021/12/26 00:54:47;;;;;;;1.10;1.10;;;17.60;55.50;;;;;;5031405;28;20049;-51
2021/12/26 00:57:15;;;;;;;1.98;1.70;;;17.60;55.50;;;;;;5036544;28;20041;-52
2021/12/26 00:59:42;;;;;;;1.58;1.45;;;17.60;55.50;;;;;;5042478;28;20063;-52
2021/12/26 01:02:09;;;;;;;3.70;2.00;;;17.60;55.50;;;;;;5038924;28;20049;-51
2021/12/26 01:04:37;;;;;;;1.67;1.55;;;17.50;55.40;;;;;;5032501;28;20122;-48
2021/12/26 01:07:10;;;;;;;2.45;2.25;;;17.60;55.50;;;;;;5042902;28;20041;-47
2021/12/26 01:09:39;;;;;;;2.03;1.83;;;17.50;55.40;;;;;;5028271;28;20589;-48
2021/12/26 01:12:13;;;;;;;1.35;1.25;;;17.60;55.50;;;;;;5045369;28;20047;-47
2021/12/26 01:14:47;;;;;;;1.40;1.33;;;17.60;55.50;;;;;;5043774;28;20053;-49
2021/12/26 01:17:41;;;;;;;1.25;1.08;;;17.50;55.40;;;;;;5043580;28;20730;-47
2021/12/26 01:20:18;;;;;;;1.30;1.30;;;17.50;55.50;;;;;;5042037;28;20045;-51
2021/12/26 01:22:45;;;;;;;2.97;1.50;;;17.60;55.50;;;;;;5016824;28;20037;-55
2021/12/26 01:25:16;;;;;;;3.10;1.77;;;17.60;55.50;;;;;;5044521;28;20445;-46
2021/12/26 01:27:44;;;;;;;1.52;1.20;;;17.50;55.50;;;;;;5030623;28;20525;-46
2021/12/26 01:30:12;;;;;;;1.42;1.33;;;17.50;55.50;;;;;;5059974;28;20052;-46
2021/12/26 01:32:44;;;;;;;1.40;1.30;;;17.50;55.40;;;;;;5043814;28;20056;-50
2021/12/26 01:35:34;;;;;;;1.75;1.38;;;17.60;55.50;;;;;;5033989;28;20085;-47
2021/12/26 01:38:21;;;;;;;1.52;1.25;;;17.50;55.50;;;;;;5040630;28;20052;-46
2021/12/26 01:41:10;;;;;;;1.42;1.33;;;17.50;55.50;;;;;;5038398;28;20052;-46
2021/12/26 01:43:59;;;;;;;1.52;1.40;;;17.50;55.50;;;;;;5036908;28;20045;-46
2021/12/26 01:46:49;;;;;;;1.08;0.70;;;17.50;55.50;;;;;;5032840;28;20057;-50
2021/12/26 01:49:22;;;;;;;1.55;0.73;;;17.50;55.50;;;;;;5043869;28;20091;-49
2021/12/26 01:51:54;;;;;;;1.70;0.70;;;17.50;55.50;;;;;;5043488;28;20033;-47
2021/12/26 01:54:31;;;;;;;1.92;1.38;;;17.50;55.50;;;;;;5045092;28;20048;-49
2021/12/26 01:57:02;;;;;;;0.73;0.73;;;17.50;55.50;;;;;;5059775;28;20033;-48
2021/12/26 01:59:30;;;;;;;0.82;0.73;;;17.60;55.50;;;;;;5038844;28;20774;-52
2021/12/26 02:02:09;;;;;;;1.95;1.42;;;17.50;55.50;;;;;;5037222;28;20179;-47
2021/12/26 02:04:38;;;;;;;1.23;1.20;;;17.50;55.50;;;;;;5043353;28;20548;-50
2021/12/26 02:07:07;;;;;;;1.50;1.40;;;17.50;55.50;;;;;;5033410;28;20040;-50
2021/12/26 02:09:34;;;;;;;1.55;1.52;;;17.50;55.50;;;;;;5035049;28;20056;-47
2021/12/26 02:12:06;;;;;;;1.40;1.23;;;17.50;55.40;;;;;;5034583;28;20053;-46
2021/12/26 02:14:34;;;;;;;1.30;1.20;;;17.50;55.50;;;;;;5040267;28;20053;-48
2021/12/26 02:17:24;;;;;;;1.45;1.15;;;17.60;55.50;;;;;;5031126;28;20514;-48
2021/12/26 02:19:57;;;;;;;1.00;0.60;;;17.50;55.50;;;;;;5053477;28;20073;-47
2021/12/26 02:22:29;;;;;;;1.27;1.17;;;17.50;56.00;;;;;;5042982;28;20132;-47
2021/12/26 02:27:42;;;;;;;1.25;1.17;;;17.50;55.50;;;;;;5054305;28;20064;-46
2021/12/26 02:30:12;;;;;;;1.02;0.85;;;17.50;55.50;;;;;;5043114;28;20048;-45
2021/12/26 02:32:45;;;;;;;1.33;0.82;;;17.50;55.50;;;;;;5043021;28;20045;-49
2021/12/26 02:35:14;;;;;;;1.05;1.00;;;17.50;55.60;;;;;;5046334;28;20604;-47
2021/12/26 02:37:41;;;;;;;1.17;0.93;;;17.50;55.50;;;;;;5047811;28;20047;-47
2021/12/26 02:40:10;;;;;;;0.70;0.65;;;17.50;55.50;;;;;;5047663;28;20033;-52
2021/12/26 02:42:37;;;;;;;1.33;0.90;;;17.50;55.50;;;;;;5036889;28;20124;-48
2021/12/26 02:45:05;;;;;;;1.88;1.15;;;17.50;55.50;;;;;;5048138;28;20052;-49
2021/12/26 02:47:34;;;;;;;1.48;1.33;;;17.50;55.50;;;;;;5040101;28;20041;-49
2021/12/26 02:50:05;;;;;;;2.03;0.90;;;17.50;55.40;;;;;;5040098;28;20140;-49
2021/12/26 02:52:33;;;;;;;1.65;1.25;;;17.50;55.40;;;;;;5046961;28;20041;-50
2021/12/26 02:55:01;;;;;;;0.95;0.95;;;17.50;55.40;;;;;;5032572;28;20702;-51
2021/12/26 02:57:29;;;;;;;1.85;1.65;;;17.50;55.40;;;;;;5045458;28;20136;-48
2021/12/26 02:59:56;;;;;;;1.00;1.00;;;17.50;55.50;;;;;;5042629;28;20046;-49
2021/12/26 03:02:23;;;;;;;1.20;1.10;;;17.50;55.50;;;;;;5042527;28;20537;-45
2021/12/26 03:04:50;;;;;;;1.52;1.10;;;17.50;55.50;;;;;;5046553;28;20049;-49
2021/12/26 03:07:17;;;;;;;2.80;1.13;;;17.50;55.50;;;;;;5046649;28;20033;-50
2021/12/26 03:09:48;;;;;;;3.70;1.50;;;17.50;55.50;;;;;;5038361;28;20651;-48
2021/12/26 03:12:15;;;;;;;1.98;0.93;;;17.50;55.40;;;;;;5047345;28;20049;-46
2021/12/26 03:14:42;;;;;;;1.65;1.08;;;17.50;55.50;;;;;;5039875;28;20140;-46
2021/12/26 03:17:11;;;;;;;0.90;0.75;;;17.50;55.40;;;;;;5040605;28;20433;-48
2021/12/26 03:19:38;;;;;;;0.98;0.82;;;17.50;55.40;;;;;;5046709;28;20387;-45
2021/12/26 03:22:06;;;;;;;0.60;0.60;;;17.50;55.40;;;;;;5032389;28;20117;-45
2021/12/26 03:24:37;;;;;;;1.45;1.00;;;17.50;55.50;;;;;;5045721;28;20036;-45
2021/12/26 03:27:07;;;;;;;1.38;1.27;;;17.50;55.50;;;;;;5048734;28;20056;-47
2021/12/26 03:29:35;;;;;;;0.52;0.38;;;17.50;55.50;;;;;;5039987;28;20056;-47
2021/12/26 03:32:08;;;;;;;0.60;0.60;;;17.50;55.50;;;;;;5040153;28;20045;-49
2021/12/26 03:34:36;;;;;;;0.77;0.60;;;17.50;55.50;;;;;;5033026;28;20119;-46
2021/12/26 03:37:03;;;;;;;0.98;0.98;;;17.50;55.50;;;;;;5031518;28;20029;-49
2021/12/26 03:39:31;;;;;;;0.55;0.50;;;17.50;55.50;;;;;;5033012;28;20053;-46
2021/12/26 03:41:58;;;;;;;0.60;0.60;;;17.50;55.50;;;;;;5052232;28;20068;-47
2021/12/26 03:44:26;;;;;;;1.10;0.75;;;17.50;55.50;;;;;;5057934;28;20120;-45
2021/12/26 03:46:53;;;;;;;0.60;0.60;;;17.50;55.50;;;;;;5044264;28;20055;-50
2021/12/26 03:49:21;;;;;;;0.80;0.73;;;17.50;55.50;;;;;;5055625;28;20801;-51
2021/12/26 03:51:48;;;;;;;0.85;0.80;;;17.50;55.50;;;;;;5033922;28;20042;-48
2021/12/26 03:54:16;;;;;;;1.08;1.08;;;17.50;55.50;;;;;;5049477;28;20041;-51
2021/12/26 03:56:43;;;;;;;3.08;0.60;;;17.50;55.50;;;;;;5035690;28;20056;-49
2021/12/26 03:59:17;;;;;;;3.83;0.95;;;17.50;55.50;;;;;;5046581;28;20045;-45
2021/12/26 04:01:46;;;;;;;0.75;0.70;;;17.50;55.50;;;;;;5036480;28;20095;-47
2021/12/26 04:04:13;;;;;;;0.70;0.57;;;17.50;55.50;;;;;;5045368;28;20040;-51
2021/12/26 04:06:41;;;;;;;0.70;0.57;;;17.50;55.50;;;;;;5034879;28;20848;-44
2021/12/26 04:09:08;;;;;;;1.15;1.05;;;17.50;55.50;;;;;;5037705;28;20060;-47
2021/12/26 04:11:38;;;;;;;1.10;0.60;;;17.50;55.50;;;;;;5038769;28;20037;-48
2021/12/26 04:14:06;;;;;;;0.82;0.82;;;17.50;55.50;;;;;;5036650;28;20148;-45
2021/12/26 04:16:32;;;;;;;0.70;0.65;;;17.50;55.50;;;;;;5034630;28;20037;-51
2021/12/26 04:19:01;;;;;;;1.77;0.77;;;17.50;55.50;;;;;;5044093;28;20049;-49
2021/12/26 04:21:28;;;;;;;1.08;0.90;;;17.50;55.50;;;;;;5042735;28;20041;-47
2021/12/26 04:24:00;;;;;;;0.85;0.70;;;17.50;55.50;;;;;;5045546;28;20124;-46
2021/12/26 04:26:28;;;;;;;2.05;0.82;;;17.50;55.50;;;;;;5043883;28;20033;-46
2021/12/26 04:28:56;;;;;;;0.40;0.40;;;17.50;55.50;;;;;;5036141;28;20311;-46
2021/12/26 04:31:23;;;;;;;2.70;0.55;;;17.50;55.50;;;;;;5032712;28;20037;-45
2021/12/26 04:33:51;;;;;;;0.52;0.40;;;17.50;55.50;;;;;;5044539;28;20045;-45
2021/12/26 04:36:21;;;;;;;1.65;0.80;;;17.50;55.50;;;;;;5040250;28;20576;-49
2021/12/26 04:38:49;;;;;;;2.22;0.77;;;17.50;55.50;;;;;;5044518;28;20049;-47
2021/12/26 04:41:16;;;;;;;0.45;0.43;;;17.50;55.50;;;;;;5043391;28;20410;-47
2021/12/26 04:44:01;;;;;;;0.73;0.50;;;17.50;55.50;;;;;;5038582;28;20045;-47
2021/12/26 04:46:51;;;;;;;0.60;0.50;;;17.50;55.50;;;;;;5041078;28;20128;-47
2021/12/26 04:49:23;;;;;;;0.55;0.52;;;17.40;55.50;;;;;;5032307;28;20040;-48
2021/12/26 04:51:52;;;;;;;1.10;1.10;;;17.50;55.50;;;;;;5034495;28;20550;-49
2021/12/26 04:54:20;;;;;;;0.88;0.60;;;17.50;55.50;;;;;;5045979;28;20049;-45
2021/12/26 04:56:48;;;;;;;0.98;0.63;;;17.40;55.50;;;;;;5043592;28;20135;-50
2021/12/26 04:59:15;;;;;;;0.82;0.82;;;17.50;55.50;;;;;;5043334;28;20045;-51
2021/12/26 05:01:43;;;;;;;0.77;0.75;;;17.40;56.10;;;;;;5033120;28;20433;-47
2021/12/26 05:04:11;;;;;;;0.63;0.63;;;17.50;55.50;;;;;;5030115;28;20644;-49
2021/12/26 05:06:39;;;;;;;0.40;0.35;;;17.40;55.50;;;;;;5043946;28;20081;-48
2021/12/26 05:09:07;;;;;;;0.77;0.70;;;17.40;55.50;;;;;;5039738;28;20429;-50
2021/12/26 05:11:36;;;;;;;1.48;1.33;;;17.50;55.60;;;;;;5033894;28;20056;-49
2021/12/26 05:14:03;;;;;;;0.73;0.47;;;17.50;55.50;;;;;;5032726;28;20044;-48
2021/12/26 05:16:30;;;;;;;0.55;0.47;;;17.50;55.50;;;;;;5032672;28;20049;-45
2021/12/26 05:18:58;;;;;;;1.98;0.80;;;17.40;55.50;;;;;;5042297;28;20041;-45
2021/12/26 05:21:25;;;;;;;3.42;1.08;;;17.50;55.60;;;;;;5045101;28;20699;-44
2021/12/26 05:23:52;;;;;;;0.60;0.57;;;17.40;55.50;;;;;;5043865;28;20060;-45
2021/12/26 05:26:23;;;;;;;0.70;0.70;;;17.40;55.50;;;;;;5043008;28;20580;-45
2021/12/26 05:28:50;;;;;;;0.77;0.77;;;17.50;55.50;;;;;;5034449;28;20486;-46
2021/12/26 05:31:19;;;;;;;1.10;0.73;;;17.50;55.50;;;;;;5039296;28;20044;-47
2021/12/26 05:33:47;;;;;;;0.70;0.52;;;17.40;55.50;;;;;;5043384;28;20114;-45
2021/12/26 05:36:16;;;;;;;1.67;0.88;;;17.40;55.50;;;;;;5039370;28;20049;-44
2021/12/26 05:38:44;;;;;;;1.15;0.80;;;17.50;55.60;;;;;;5044113;28;20044;-45
2021/12/26 05:41:12;;;;;;;1.75;0.38;;;17.50;56.20;;;;;;5040600;28;20041;-47
2021/12/26 05:43:49;;;;;;;;;;;17.50;55.60;;;;;;5034975;28;20048;-46
2021/12/26 05:46:16;;;;;;;0.57;0.47;;;17.40;55.50;;;;;;5044236;28;20385;-46
2021/12/26 05:48:44;;;;;;;0.50;0.50;;;17.40;55.70;;;;;;5043707;28;20045;-46
2021/12/26 05:51:25;;;;;;;0.50;0.50;;;17.40;55.70;;;;;;5061639;28;20041;-46
2021/12/26 05:54:13;;;;;;;0.82;0.82;;;17.40;55.70;;;;;;5037647;28;20053;-46
2021/12/26 05:56:40;;;;;;;0.75;0.73;;;17.40;55.70;;;;;;5035759;28;20072;-46
2021/12/26 05:59:08;;;;;;;0.65;0.50;;;17.40;55.60;;;;;;5036953;28;20052;-50
2021/12/26 06:01:37;;;;;;;1.52;0.47;;;17.40;55.70;;;;;;5033024;28;20052;-47
2021/12/26 06:04:04;;;;;;;0.50;0.50;;;17.40;55.60;;;;;;5042575;28;20075;-48
2021/12/26 06:06:32;;;;;;;2.13;0.82;;;17.40;55.60;;;;;;5040674;28;20059;-47
2021/12/26 06:08:59;;;;;;;0.70;0.50;;;17.40;55.60;;;;;;5042180;28;20048;-49
2021/12/26 06:11:26;;;;;;;0.55;0.55;;;17.40;55.60;;;;;;5043710;28;20044;-49
2021/12/26 06:13:53;;;;;;;0.30;0.30;;;17.40;55.60;;;;;;5047598;28;20069;-49
2021/12/26 06:16:22;;;;;;;1.15;0.50;;;17.40;55.60;;;;;;5035150;28;20049;-47
2021/12/26 06:18:50;;;;;;;0.70;0.70;;;17.40;55.70;;;;;;5045487;28;20520;-47
2021/12/26 06:21:19;;;;;;;1.58;1.10;;;17.40;55.60;;;;;;5036003;28;20464;-45
2021/12/26 06:23:50;;;;;;;1.75;0.88;;;17.50;55.70;;;;;;5037020;28;20387;-50
2021/12/26 06:26:22;;;;;;;0.90;0.80;;;17.40;55.70;;;;;;5041548;28;20033;-44
2021/12/26 06:28:50;;;;;;;1.05;0.77;;;17.50;55.70;;;;;;5037488;28;20116;-50
2021/12/26 06:31:45;;;;;;;2.25;1.10;;;17.40;55.70;;;;;;5024791;28;20099;-45
2021/12/26 06:34:37;;;;;;;0.85;0.50;;;17.40;55.70;;;;;;5021186;28;20045;-47
2021/12/26 06:37:23;;;;;;;1.80;1.17;;;17.40;55.70;;;;;;5025869;28;20611;-44
2021/12/26 06:40:11;;;;;;;1.80;0.80;;;17.40;55.70;;;;;;5026221;28;20052;-48
2021/12/26 06:43:06;;;;;;;1.45;1.15;;;17.40;55.70;;;;;;4964771;28;20550;-48
2021/12/26 06:45:52;;;;;;;2.50;1.08;;;17.40;55.80;;;;;;4966189;28;21200;-46
2021/12/26 06:48:24;;;;;;;1.30;1.20;;;17.40;55.70;;;;;;4967460;28;20101;-46
2021/12/26 06:50:52;;;;;;;1.20;0.95;;;17.40;55.80;;;;;;4967100;28;20120;-50
2021/12/26 06:53:21;;;;;;;3.70;1.73;;;17.40;55.70;;;;;;4966753;28;20157;-49
2021/12/26 06:55:49;;;;;;;1.88;1.10;;;17.40;56.30;;;;;;4966990;28;20067;-46
2021/12/26 06:58:16;;;;;;;2.72;1.23;;;17.40;55.70;;;;;;4967177;28;20108;-47
2021/12/26 07:00:46;;;;;;;1.50;1.13;;;17.40;55.70;;;;;;4934973;28;20198;-47
2021/12/26 07:03:14;;;;;;;2.25;1.80;;;17.40;55.70;;;;;;4967832;28;20055;-44
2021/12/26 07:05:43;;;;;;;3.40;1.60;;;17.40;55.70;;;;;;4966840;28;20134;-50
2021/12/26 07:08:13;;;;;;;3.90;1.02;;;17.50;55.70;;;;;;4948777;28;20098;-47
2021/12/26 07:10:50;;;;;;;;;;;17.50;55.80;;;;;;4963052;28;20098;-47
2021/12/26 07:13:17;;;;;;;1.95;0.73;;;17.40;56.20;;;;;;4950340;28;19926;-50
2021/12/26 07:15:48;;;;;;;2.05;1.33;;;17.40;55.80;;;;;;4966597;28;20051;-46
2021/12/26 07:18:15;;;;;;;1.40;0.73;;;17.40;56.40;;;;;;4952898;28;20834;-52
2021/12/26 07:20:45;;;;;;;1.13;1.13;;;17.40;55.80;;;;;;5021170;28;20123;-49
2021/12/26 07:23:27;;;;;;;1.05;0.52;;;17.40;55.80;;;;;;5038827;28;20041;-47
2021/12/26 07:26:00;;;;;;;1.70;0.82;;;17.40;55.80;;;;;;5039342;28;20049;-48
2021/12/26 07:28:28;;;;;;;3.03;1.05;;;17.40;55.80;;;;;;5046572;28;20051;-51
2021/12/26 07:30:58;;;;;;;1.63;0.90;;;17.40;55.80;;;;;;5048427;28;20141;-48
2021/12/26 07:33:25;;;;;;;0.90;0.40;;;17.40;55.70;;;;;;5036573;28;20494;-46
2021/12/26 07:35:58;;;;;;;1.13;0.75;;;17.50;55.80;;;;;;5046595;28;20068;-48
2021/12/26 07:38:39;;;;;;;1.30;0.75;;;17.40;55.80;;;;;;5037783;28;20052;-49
2021/12/26 07:41:07;;;;;;;1.27;0.75;;;17.40;55.80;;;;;;5038034;28;20110;-46
2021/12/26 07:43:35;;;;;;;0.73;0.60;;;17.50;55.80;;;;;;5034904;28;20053;-49
2021/12/26 07:46:28;;;;;;;1.25;0.60;;;17.40;55.70;;;;;;5034591;28;20056;-48
2021/12/26 07:49:01;;;;;;;1.55;1.15;;;17.40;55.80;;;;;;5044734;28;20053;-49
2021/12/26 07:51:49;;;;;;;1.25;0.80;;;17.50;55.80;;;;;;5034547;28;20501;-47
2021/12/26 07:54:34;;;;;;;0.38;0.30;;;17.50;55.80;;;;;;5033960;28;20161;-50
2021/12/26 07:57:19;;;;;;;1.00;0.70;;;17.40;55.80;;;;;;5035729;28;20060;-51
2021/12/26 08:00:07;;;;;;;0.70;0.70;;;17.40;55.80;;;;;;5034738;28;20088;-51
2021/12/26 08:02:54;;;;;;;0.68;0.40;;;17.50;55.90;;;;;;5040080;28;20065;-49
2021/12/26 08:05:40;;;;;;;0.75;0.28;;;17.40;55.80;;;;;;5034422;28;20431;-53
2021/12/26 08:08:22;;;;;;;1.67;0.60;;;17.50;55.90;;;;;;5034954;28;20080;-49
2021/12/26 08:10:49;;;;;;;1.60;1.05;;;17.50;55.90;;;;;;5036592;28;20041;-50
2021/12/26 08:13:16;;;;;;;1.13;0.55;;;17.50;55.90;;;;;;5035837;28;20072;-46
2021/12/26 08:15:44;;;;;;;0.70;0.65;;;17.40;55.80;;;;;;5044943;28;20107;-47
2021/12/26 08:18:11;;;;;;;0.80;0.57;;;17.50;55.90;;;;;;5034031;28;20126;-50
2021/12/26 08:20:38;;;;;;;2.42;0.47;;;17.50;55.90;;;;;;5040762;28;20045;-52
2021/12/26 08:23:05;;;;;;;3.30;0.40;;;17.50;55.90;;;;;;5036712;28;20071;-46
2021/12/26 08:25:34;;;;;;;1.60;0.60;;;17.50;55.80;;;;;;5036546;28;20432;-51
2021/12/26 08:28:01;;;;;;;0.60;0.43;;;17.50;55.80;;;;;;5042718;28;20044;-50
2021/12/26 08:30:30;;;;;;;1.05;0.60;;;17.50;55.80;;;;;;5034682;28;20133;-50
2021/12/26 08:33:04;;;;;;;1.48;0.93;;;17.50;55.80;;;;;;5037206;28;20045;-52
2021/12/26 08:35:32;;;;;;;0.65;0.63;;;17.50;55.90;;;;;;5041211;28;20516;-50
2021/12/26 08:37:59;;;;;;;1.27;0.57;;;17.50;55.90;;;;;;5045505;28;20647;-50
2021/12/26 08:40:26;;;;;;;1.00;0.75;;;17.50;55.80;;;;;;5036565;28;20047;-48
2021/12/26 08:42:54;;;;;;;0.82;0.45;;;17.50;55.80;;;;;;5031656;28;20033;-49
2021/12/26 08:45:22;;;;;;;1.20;0.63;;;17.50;55.80;;;;;;5034026;28;20091;-50
2021/12/26 08:47:49;;;;;;;1.50;0.50;;;17.60;55.90;;;;;;5034653;28;20049;-49
2021/12/26 08:50:17;;;;;;;0.55;0.55;;;17.50;55.80;;;;;;5032739;28;20053;-50
2021/12/26 08:52:44;;;;;;;0.68;0.45;;;17.50;55.80;;;;;;5034027;28;20124;-48
2021/12/26 08:55:11;;;;;;;1.38;0.50;;;17.60;55.90;;;;;;5032975;28;20045;-49
2021/12/26 08:57:39;;;;;;;1.10;0.50;;;17.50;55.80;;;;;;5030462;28;20053;-47
2021/12/26 09:00:11;;;;;;;1.10;1.02;;;17.60;55.90;;;;;;5033466;28;20049;-50
2021/12/26 09:02:39;;;;;;;1.02;0.63;;;17.60;55.90;;;;;;5039495;28;20037;-49
2021/12/26 09:05:07;;;;;;;4.00;1.30;;;17.50;55.80;;;;;;5032748;28;20128;-44
2021/12/26 09:07:34;;;;;;;1.00;0.20;;;17.50;55.80;;;;;;5033992;28;20045;-49
2021/12/26 09:10:01;;;;;;;0.57;0.57;;;17.60;55.90;;;;;;5032868;28;20075;-51
2021/12/26 09:12:29;;;;;;;0.47;0.45;;;17.60;55.90;;;;;;5035231;28;20052;-51
2021/12/26 09:14:56;;;;;;;0.60;0.40;;;17.60;55.80;;;;;;5034167;28;20141;-50
2021/12/26 09:17:24;;;;;;;0.65;0.50;;;17.60;55.90;;;;;;5033594;28;20692;-50
2021/12/26 09:19:52;;;;;;;2.20;0.57;;;17.60;55.80;;;;;;5034986;28;20058;-48
2021/12/26 09:22:20;;;;;;;4.18;1.33;;;17.60;55.90;;;;;;5033774;28;20040;-51
2021/12/26 09:24:47;;;;;;;0.98;0.30;;;17.60;55.90;;;;;;5030987;28;20510;-48
2021/12/26 09:27:15;;;;;;;0.90;0.22;;;17.60;55.80;;;;;;5033271;28;20045;-47
2021/12/26 09:29:42;;;;;;;1.33;0.75;;;17.60;55.80;;;;;;5039131;28;20049;-46
2021/12/26 09:32:09;;;;;;;1.35;0.52;;;17.60;55.80;;;;;;5034585;28;20140;-49
2021/12/26 09:34:38;;;;;;;0.68;0.40;;;17.60;55.80;;;;;;5031151;28;20541;-46
2021/12/26 09:37:07;;;;;;;0.43;0.43;;;17.60;55.80;;;;;;5033199;28;20454;-51
2021/12/26 09:39:35;;;;;;;1.35;0.55;;;17.60;55.80;;;;;;5035489;28;20049;-48
2021/12/26 09:42:02;;;;;;;1.80;0.45;;;17.60;55.80;;;;;;5034851;28;20860;-49
2021/12/26 09:44:29;;;;;;;1.50;0.30;;;17.60;55.80;;;;;;5034936;28;20512;-46
2021/12/26 09:46:56;;;;;;;1.75;0.50;;;17.60;55.80;;;;;;5036466;28;20055;-48
2021/12/26 09:49:24;;;;;;;0.63;0.50;;;17.70;55.80;;;;;;5035067;28;20047;-49
2021/12/26 09:51:52;;;;;;;0.82;0.40;;;17.70;55.80;;;;;;5031016;28;20390;-46
2021/12/26 09:54:20;;;;;;;0.60;0.22;;;17.70;55.80;;;;;;5034256;28;20041;-48
2021/12/26 09:56:47;;;;;;;0.45;0.40;;;17.70;55.80;;;;;;5039645;28;20049;-46
2021/12/26 09:59:16;;;;;;;0.75;0.10;;;17.70;55.80;;;;;;5036056;28;20049;-50
2021/12/26 10:01:46;;;;;;;0.40;0.40;;;17.70;55.80;;;;;;5043033;28;20072;-47
2021/12/26 10:04:19;;;;;;;0.82;0.35;;;17.70;55.80;;;;;;5032524;28;20449;-45
2021/12/26 10:06:47;;;;;;;0.32;0.20;;;17.70;55.80;;;;;;5029693;28;20049;-51
2021/12/26 10:09:16;;;;;;;0.93;0.32;;;17.70;55.80;;;;;;5034652;28;20038;-49
2021/12/26 10:11:45;;;;;;;0.35;0.20;;;17.70;55.80;;;;;;5036965;28;20059;-48
2021/12/26 10:14:15;;;;;;;1.00;0.22;;;17.70;55.80;;;;;;5034064;28;20052;-49
2021/12/26 10:16:45;;;;;;;1.25;0.50;;;17.70;55.80;;;;;;5031372;28;20087;-47
2021/12/26 10:19:13;;;;;;;0.82;0.30;;;17.70;55.80;;;;;;5032029;28;20137;-48
2021/12/26 10:21:43;;;;;;;2.33;0.28;;;17.70;55.80;;;;;;5033049;28;20049;-47
2021/12/26 10:24:18;;;;;;;0.73;0.38;;;17.70;55.80;;;;;;5032391;28;20037;-51
2021/12/26 10:26:47;;;;;;;0.40;0.35;;;17.80;55.80;;;;;;5033549;28;20045;-49
2021/12/26 10:29:27;;;;;;;0.82;0.75;;;17.70;55.70;;;;;;5037628;28;20650;-48
2021/12/26 10:32:00;;;;;;;0.35;0.35;;;17.80;55.80;;;;;;5038460;28;20039;-51
2021/12/26 10:34:31;;;;;;;0.57;0.20;;;17.70;55.70;;;;;;5030236;28;20117;-50
2021/12/26 10:37:01;;;;;;;0.82;0.43;;;17.70;55.70;;;;;;5026178;28;20777;-53
2021/12/26 10:39:32;;;;;;;1.20;0.32;;;17.80;55.80;;;;;;5033951;28;20041;-48
2021/12/26 10:42:01;;;;;;;1.48;0.40;;;17.70;55.80;;;;;;5031495;28;20512;-49
2021/12/26 10:44:32;;;;;;;1.58;0.20;;;17.80;55.80;;;;;;5033508;28;20045;-47
2021/12/26 10:47:04;;;;;;;0.63;0.38;;;17.80;55.80;;;;;;5036642;28;20098;-49
2021/12/26 10:49:48;;;;;;;0.30;0.30;;;17.80;55.80;;;;;;5033566;28;20041;-48
2021/12/26 10:52:26;;;;;;;1.17;0.30;;;17.80;56.40;;;;;;5031046;28;20058;-50
2021/12/26 10:54:59;;;;;;;1.67;0.30;;;17.80;55.80;;;;;;5032605;28;20100;-47
2021/12/26 10:57:29;;;;;;;0.85;0.63;;;17.80;55.80;;;;;;5036860;28;20068;-47
2021/12/26 11:00:12;;;;;;;0.70;0.20;;;17.80;55.80;;;;;;5039695;28;20064;-51
2021/12/26 11:02:43;;;;;;;2.05;0.40;;;17.80;55.80;;;;;;5038270;28;20047;-46
2021/12/26 11:05:13;;;;;;;0.40;0.20;;;17.80;55.80;;;;;;5041399;28;20039;-48
2021/12/26 11:07:46;;;;;;;0.52;0.20;;;17.80;55.90;;;;;;5038108;28;20115;-44
2021/12/26 11:10:18;;;;;;;0.65;0.65;;;17.80;55.80;;;;;;5047861;28;20040;-51
2021/12/26 11:12:49;;;;;;;1.27;0.22;;;17.80;55.90;;;;;;5040372;28;20095;-46
2021/12/26 11:15:19;;;;;;;1.05;0.13;;;17.80;55.90;;;;;;5041753;28;20047;-45
2021/12/26 11:17:49;;;;;;;0.25;0.13;;;17.80;55.90;;;;;;5038216;28;20045;-46
2021/12/26 11:20:35;;;;;;;0.80;0.15;;;17.80;55.90;;;;;;5038344;28;20087;-47
2021/12/26 11:23:09;;;;;;;0.37;0.20;;;17.80;55.80;;;;;;5040317;28;20504;-47
2021/12/26 11:25:40;;;;;;;1.75;0.20;;;17.80;55.90;;;;;;5038372;28;20422;-48
2021/12/26 11:28:07;;;;;;;0.45;0.10;;;17.80;55.90;;;;;;5034183;28;20041;-46
2021/12/26 11:30:34;;;;;;;1.75;0.43;;;17.80;55.90;;;;;;5035216;28;20049;-47
2021/12/26 11:33:03;;;;;;;0.25;0.10;;;17.80;55.90;;;;;;5043568;28;20042;-45
2021/12/26 11:35:30;;;;;;;0.98;0.10;;;17.80;56.00;;;;;;5038518;28;20042;-45
2021/12/26 11:37:58;;;;;;;0.30;0.20;;;17.80;55.90;;;;;;5039682;28;20044;-50
2021/12/26 11:40:47;;;;;;;1.02;0.13;;;17.80;55.90;;;;;;5038088;28;20041;-45
2021/12/26 11:44:02;;;;;;;0.77;0.17;;;17.80;56.00;;;;;;5049876;28;20513;-46
2021/12/26 11:47:03;;;;;;;0.20;0.20;;;17.80;56.00;;;;;;5036629;28;20060;-48
2021/12/26 11:50:13;;;;;;;0.30;0.20;;;17.80;56.10;;;;;;5041873;28;20262;-48
2021/12/26 11:53:43;;;;;;;0.52;0.20;;;17.80;56.10;;;;;;5044232;28;20103;-48
2021/12/26 11:56:27;;;;;;;0.10;0.10;;;17.80;56.10;;;;;;5017730;28;20513;-48
2021/12/26 11:59:17;;;;;;;0.80;0.30;;;17.80;56.10;;;;;;5044792;28;20045;-50
2021/12/26 12:01:48;;;;;;;0.22;0.20;;;17.90;56.10;;;;;;5044757;28;20049;-49
2021/12/26 12:04:18;;;;;;;0.10;0.08;;;17.90;56.10;;;;;;5044858;28;20206;-47
2021/12/26 12:06:46;;;;;;;0.20;0.10;;;17.90;56.00;;;;;;5024683;28;20053;-49
2021/12/26 12:09:31;;;;;;;0.85;0.68;;;17.90;56.00;;;;;;5046019;28;20131;-52
2021/12/26 12:12:06;;;;;;;0.20;0.10;;;18.00;56.00;;;;;;5044984;28;20068;-51
2021/12/26 12:14:52;;;;;;;0.43;0.10;;;18.00;56.00;;;;;;5041543;28;20052;-52
2021/12/26 12:17:22;;;;;;;0.20;0.10;;;18.10;56.00;;;;;;5044519;28;20041;-53
2021/12/26 12:20:16;;;;;;;0.65;0.10;;;18.10;55.90;;;;;;5044321;28;20302;-51
2021/12/26 12:23:13;;;;;;;0.52;0.10;;;18.10;55.70;;;;;;5040653;28;20119;-45
2021/12/26 12:25:48;;;;;;;0.30;0.20;;;18.20;55.70;;;;;;5036847;28;20127;-48
2021/12/26 12:28:20;;;;;;;0.20;0.10;;;18.20;55.70;;;;;;5032615;28;20052;-47
2021/12/26 12:30:49;;;;;;;2.08;0.10;;;18.20;55.60;;;;;;5032737;28;20042;-49
2021/12/26 12:33:21;;;;;;;0.15;0.10;;;18.20;55.60;;;;;;5038849;28;20037;-48
2021/12/26 12:35:51;;;;;;;0.10;0.10;;;18.30;55.60;;;;;;5034887;28;20045;-47
2021/12/26 12:38:34;;;;;;;0.73;0.10;;;18.30;55.50;;;;;;5035631;28;20063;-45
2021/12/26 12:41:03;;;;;;;0.20;0.10;;;18.40;55.30;;;;;;5038392;28;20123;-50
2021/12/26 12:43:43;;;;;;;0.20;0.10;;;18.40;55.20;;;;;;5035500;28;20117;-48
2021/12/26 12:46:11;;;;;;;0.65;0.22;;;18.50;55.10;;;;;;5032481;28;20082;-45
2021/12/26 12:48:44;;;;;;;0.20;0.17;;;18.50;55.00;;;;;;5031655;28;20050;-46
2021/12/26 12:51:44;;;;;;;0.20;0.20;;;18.60;55.00;;;;;;5037505;28;20128;-48
2021/12/26 12:54:30;;;;;;;0.20;0.20;;;18.70;54.90;;;;;;5034521;28;20045;-46
2021/12/26 12:56:59;;;;;;;0.40;0.10;;;18.70;54.80;;;;;;5036722;28;20155;-49
2021/12/26 12:59:36;;;;;;;0.77;0.40;;;18.80;54.80;;;;;;5040542;28;20049;-47
2021/12/26 13:02:05;;;;;;;0.50;0.10;;;18.80;54.60;;;;;;5036319;28;20045;-46
2021/12/26 13:04:43;;;;;;;1.30;0.10;;;18.90;54.60;;;;;;5031916;28;20090;-47
2021/12/26 13:07:16;;;;;;;0.10;0.08;;;18.90;54.40;;;;;;5034235;28;20044;-46
2021/12/26 13:09:48;;;;;;;0.10;0.10;;;19.00;54.40;;;;;;5037126;28;20045;-45
2021/12/26 13:12:16;;;;;;;0.10;0.10;;;19.00;54.30;;;;;;5034569;28;20045;-47
2021/12/26 13:14:49;;;;;;;0.10;0.10;;;19.10;54.30;;;;;;5036485;28;20057;-45